createdAt,value
2023-01-29T00:02:21.095Z,75.09
2023-01-29T00:04:48.381Z,75.35
2023-01-29T00:07:15.837Z,74.92
2023-01-29T00:09:43.224Z,75.26
2023-01-29T00:12:10.314Z,75.34
2023-01-29T00:14:37.341Z,75.23
2023-01-29T00:17:04.403Z,75.33
2023-01-29T00:19:31.469Z,75.31
2023-01-29T00:21:58.377Z,75.46
2023-01-29T00:24:25.545Z,75.40
2023-01-29T00:26:52.652Z,75.58
2023-01-29T00:29:19.794Z,75.68
2023-01-29T00:31:47.472Z,75.75
2023-01-29T00:34:16.293Z,74.88
2023-01-29T00:36:45.557Z,75.26
2023-01-29T00:39:13.134Z,75.56
2023-01-29T00:41:58.417Z,75.57
2023-01-29T00:44:44.723Z,75.60
2023-01-29T00:47:30.193Z,75.82
2023-01-29T00:49:57.803Z,75.65
2023-01-29T00:52:25.622Z,75.94
2023-01-29T00:54:59.077Z,75.93
2023-01-29T00:57:29.923Z,75.79
2023-01-29T00:59:57.405Z,75.64
2023-01-29T01:02:44.418Z,75.47
2023-01-29T01:05:19.499Z,75.59
2023-01-29T01:07:49.621Z,75.45
2023-01-29T01:10:29.927Z,75.49
2023-01-29T01:12:58.776Z,75.73
2023-01-29T01:15:29.996Z,75.55
2023-01-29T01:18:00.493Z,75.43
2023-01-29T01:20:30.532Z,76.08
2023-01-29T01:22:58.021Z,75.90
2023-01-29T01:25:27.361Z,75.88
2023-01-29T01:30:27.559Z,76.00
2023-01-29T01:32:55.886Z,76.01
2023-01-29T01:35:23.188Z,76.23
2023-01-29T01:37:50.664Z,75.40
2023-01-29T01:40:23.547Z,76.14
2023-01-29T01:42:57.951Z,76.24
2023-01-29T01:45:30.429Z,76.24
2023-01-29T01:48:13.144Z,76.18
2023-01-29T01:50:47.334Z,76.37
2023-01-29T01:53:18.546Z,76.07
2023-01-29T01:56:01.819Z,75.94
2023-01-29T01:58:44.252Z,75.72
2023-01-29T02:01:12.847Z,75.98
2023-01-29T02:04:11.350Z,75.93
2023-01-29T02:06:59.528Z,75.85
2023-01-29T02:09:38.931Z,75.96
2023-01-29T02:12:11.717Z,76.55
2023-01-29T02:14:41.289Z,76.57
2023-01-29T02:17:19.562Z,76.16
2023-01-29T02:20:07.388Z,75.68
2023-01-29T02:23:23.543Z,76.54
2023-01-29T02:26:27.973Z,76.43
2023-01-29T02:29:22.589Z,76.53
2023-01-29T02:32:32.432Z,76.80
2023-01-29T02:35:26.275Z,76.60
2023-01-29T02:38:38.660Z,76.44
2023-01-29T02:41:16.804Z,76.84
2023-01-29T02:43:54.102Z,76.47
2023-01-29T02:47:12.187Z,76.58
2023-01-29T02:49:55.673Z,76.52
2023-01-29T02:52:50.893Z,76.60
2023-01-29T02:55:26.671Z,77.22
2023-01-29T02:58:02.747Z,77.00
2023-01-29T03:00:39.806Z,76.51
2023-01-29T03:03:32.689Z,76.73
2023-01-29T03:06:12.150Z,76.77
2023-01-29T03:08:50.255Z,76.34
2023-01-29T03:11:18.272Z,76.50
2023-01-29T03:13:57.311Z,76.55
2023-01-29T03:16:40.468Z,76.18
2023-01-29T03:19:19.314Z,76.29
2023-01-29T03:21:59.089Z,76.04
2023-01-29T03:25:04.057Z,76.21
2023-01-29T03:28:00.293Z,77.14
2023-01-29T03:30:56.295Z,76.89
2023-01-29T03:33:36.578Z,76.49
2023-01-29T03:36:14.214Z,76.83
2023-01-29T03:38:41.627Z,76.29
2023-01-29T03:41:33.535Z,76.50
2023-01-29T03:44:19.307Z,77.00
2023-01-29T03:46:57.524Z,76.69
2023-01-29T03:49:32.302Z,76.77
2023-01-29T03:52:23.688Z,77.18
2023-01-29T03:55:18.313Z,76.80
2023-01-29T03:58:09.555Z,76.67
2023-01-29T04:00:45.995Z,76.76
2023-01-29T04:03:23.287Z,77.37
2023-01-29T04:06:10.669Z,76.96
2023-01-29T04:09:08.155Z,77.26
2023-01-29T04:11:45.427Z,76.83
2023-01-29T04:14:13.200Z,76.92
2023-01-29T04:16:46.204Z,76.98
2023-01-29T04:19:30.504Z,77.24
2023-01-29T04:22:07.692Z,77.05
2023-01-29T04:24:35.395Z,76.87
2023-01-29T04:27:28.316Z,77.18
2023-01-29T04:30:17.303Z,77.16
2023-01-29T04:33:04.571Z,76.79
2023-01-29T04:36:08.937Z,76.32
2023-01-29T04:39:05.552Z,76.62
2023-01-29T04:42:13.549Z,77.00
2023-01-29T04:44:58.273Z,77.00
2023-01-29T04:47:31.172Z,76.14
2023-01-29T04:50:22.675Z,76.53
2023-01-29T04:53:18.772Z,76.58
2023-01-29T04:55:50.330Z,76.38
2023-01-29T04:58:39.069Z,76.54
2023-01-29T05:01:12.741Z,76.57
2023-01-29T05:03:43.455Z,76.23
2023-01-29T05:06:11.942Z,76.91
2023-01-29T05:08:40.860Z,76.85
2023-01-29T05:11:08.473Z,76.65
2023-01-29T05:13:40.039Z,76.90
2023-01-29T05:16:19.108Z,76.42
2023-01-29T05:18:47.326Z,76.51
2023-01-29T05:21:14.486Z,77.01
2023-01-29T05:23:53.227Z,76.89
2023-01-29T05:26:40.185Z,76.84
2023-01-29T05:29:08.045Z,77.48
2023-01-29T05:31:35.077Z,76.87
2023-01-29T05:34:02.162Z,77.41
2023-01-29T05:36:29.421Z,77.17
2023-01-29T05:38:56.440Z,77.63
2023-01-29T05:41:23.463Z,77.28
2023-01-29T05:43:51.188Z,76.76
2023-01-29T05:46:18.930Z,76.79
2023-01-29T05:48:46.051Z,76.97
2023-01-29T05:51:13.052Z,77.53
2023-01-29T05:53:40.165Z,77.36
2023-01-29T05:56:07.522Z,77.23
2023-01-29T05:58:35.220Z,77.62
2023-01-29T06:01:16.639Z,77.31
2023-01-29T06:03:44.189Z,76.77
2023-01-29T06:06:12.074Z,77.21
2023-01-29T06:08:40.186Z,76.64
2023-01-29T06:11:10.888Z,77.35
2023-01-29T06:13:38.605Z,77.55
2023-01-29T06:16:09.856Z,77.60
2023-01-29T06:18:37.990Z,77.24
2023-01-29T06:21:08.520Z,77.12
2023-01-29T06:23:35.878Z,77.51
2023-01-29T06:26:11.381Z,78.10
2023-01-29T06:28:38.884Z,77.43
2023-01-29T06:31:26.478Z,77.91
2023-01-29T06:33:55.634Z,77.40
2023-01-29T06:36:23.200Z,77.69
2023-01-29T06:38:50.466Z,77.64
2023-01-29T06:41:20.623Z,77.20
2023-01-29T06:43:48.028Z,77.49
2023-01-29T06:46:15.346Z,77.21
2023-01-29T06:48:43.045Z,77.62
2023-01-29T06:51:11.456Z,77.79
2023-01-29T06:53:40.082Z,77.33
2023-01-29T06:56:07.909Z,77.66
2023-01-29T06:58:38.923Z,77.62
2023-01-29T07:01:08.770Z,77.94
2023-01-29T07:03:36.244Z,78.40
2023-01-29T07:06:04.434Z,77.70
2023-01-29T07:08:32.050Z,77.26
2023-01-29T07:11:01.081Z,77.83
2023-01-29T07:13:28.408Z,77.58
2023-01-29T07:16:02.613Z,77.64
2023-01-29T07:18:30.272Z,77.62
2023-01-29T07:20:58.204Z,78.16
2023-01-29T07:23:25.794Z,77.98
2023-01-29T07:25:52.890Z,78.23
2023-01-29T07:28:23.039Z,78.37
2023-01-29T07:30:50.123Z,78.22
2023-01-29T07:33:17.133Z,78.62
2023-01-29T07:35:44.386Z,78.74
2023-01-29T07:38:11.921Z,79.46
2023-01-29T07:40:39.824Z,78.96
2023-01-29T07:43:09.645Z,79.39
2023-01-29T07:45:39.136Z,79.33
2023-01-29T07:48:09.523Z,79.16
2023-01-29T07:50:36.636Z,79.36
2023-01-29T07:53:04.183Z,80.01
2023-01-29T07:55:31.945Z,79.68
2023-01-29T07:58:04.012Z,80.09
2023-01-29T08:00:32.897Z,80.32
2023-01-29T08:03:09.998Z,79.80
2023-01-29T08:05:37.168Z,80.35
2023-01-29T08:08:07.477Z,80.31
2023-01-29T08:10:40.132Z,80.70
2023-01-29T08:13:08.491Z,81.55
2023-01-29T08:15:38.028Z,81.54
2023-01-29T08:18:06.673Z,81.98
2023-01-29T08:20:33.783Z,82.14
2023-01-29T08:23:08.441Z,82.13
2023-01-29T08:25:36.080Z,83.09
2023-01-29T08:28:04.569Z,83.08
2023-01-29T08:30:34.088Z,82.98
2023-01-29T08:33:01.739Z,83.21
2023-01-29T08:35:29.002Z,83.59
2023-01-29T08:38:01.813Z,83.62
2023-01-29T08:40:32.113Z,83.43
2023-01-29T08:43:02.152Z,83.60
2023-01-29T08:45:32.106Z,84.05
2023-01-29T08:47:59.128Z,84.18
2023-01-29T08:50:26.409Z,84.28
2023-01-29T08:52:59.304Z,83.97
2023-01-29T08:55:27.827Z,84.17
2023-01-29T08:57:57.412Z,83.71
2023-01-29T09:00:24.861Z,83.93
2023-01-29T09:02:52.014Z,84.18
2023-01-29T09:05:19.548Z,84.25
2023-01-29T09:07:46.678Z,83.91
2023-01-29T09:10:13.898Z,84.09
2023-01-29T09:12:40.982Z,84.74
2023-01-29T09:15:09.052Z,84.50
2023-01-29T09:17:36.223Z,84.17
2023-01-29T09:20:06.256Z,84.54
2023-01-29T09:22:34.062Z,84.56
2023-01-29T09:25:01.118Z,84.59
2023-01-29T09:27:28.563Z,83.97
2023-01-29T09:29:55.559Z,84.31
2023-01-29T09:32:49.715Z,84.15
2023-01-29T09:35:10.013Z,83.52
2023-01-29T09:37:37.545Z,83.06
2023-01-29T09:40:05.554Z,83.08
2023-01-29T09:42:48.628Z,83.23
2023-01-29T09:45:24.884Z,82.78
2023-01-29T09:47:53.870Z,82.68
2023-01-29T09:50:29.745Z,83.05
2023-01-29T09:53:22.257Z,83.31
2023-01-29T09:55:54.510Z,82.81
2023-01-29T09:58:34.489Z,83.25
2023-01-29T10:01:41.108Z,82.96
2023-01-29T10:04:51.343Z,82.89
2023-01-29T10:08:18.404Z,83.03
2023-01-29T10:10:52.208Z,82.54
2023-01-29T10:13:24.945Z,82.78
2023-01-29T10:16:22.271Z,82.53
2023-01-29T10:18:49.307Z,81.90
2023-01-29T10:21:47.128Z,81.57
2023-01-29T10:24:29.045Z,81.83
2023-01-29T10:26:56.359Z,81.81
2023-01-29T10:29:25.316Z,82.10
2023-01-29T10:32:06.034Z,82.20
2023-01-29T10:34:44.303Z,82.24
2023-01-29T10:37:42.415Z,81.00
2023-01-29T10:40:21.853Z,80.61
2023-01-29T10:43:12.999Z,80.62
2023-01-29T10:46:03.220Z,81.35
2023-01-29T10:48:58.952Z,80.95
2023-01-29T10:51:56.832Z,80.57
2023-01-29T10:54:54.688Z,80.49
2023-01-29T10:57:56.555Z,80.16
2023-01-29T11:00:30.536Z,80.68
2023-01-29T11:03:28.652Z,80.54
2023-01-29T11:06:23.826Z,79.55
2023-01-29T11:09:11.576Z,80.17
2023-01-29T11:11:52.617Z,79.88
2023-01-29T11:14:27.374Z,78.32
2023-01-29T11:16:54.391Z,79.42
2023-01-29T11:19:43.901Z,78.52
2023-01-29T11:22:29.439Z,78.33
2023-01-29T11:25:21.691Z,77.73
2023-01-29T11:28:02.154Z,78.51
2023-01-29T11:30:38.615Z,77.84
2023-01-29T11:33:05.571Z,78.42
2023-01-29T11:35:33.577Z,77.49
2023-01-29T11:38:29.867Z,77.25
2023-01-29T11:41:16.795Z,77.39
2023-01-29T11:43:43.805Z,77.44
2023-01-29T11:46:16.134Z,76.83
2023-01-29T11:48:47.986Z,77.17
2023-01-29T11:51:29.105Z,76.34
2023-01-29T11:54:01.168Z,75.94
2023-01-29T11:56:45.714Z,76.83
2023-01-29T11:59:50.293Z,76.43
2023-01-29T12:02:37.038Z,76.44
2023-01-29T12:05:20.184Z,75.90
2023-01-29T12:07:50.765Z,75.67
2023-01-29T12:10:33.665Z,75.54
2023-01-29T12:13:09.565Z,73.98
2023-01-29T12:15:40.672Z,73.49
2023-01-29T12:18:30.535Z,74.08
2023-01-29T12:21:47.499Z,74.36
2023-01-29T12:24:44.754Z,72.70
2023-01-29T12:27:38.292Z,72.38
2023-01-29T12:30:26.199Z,71.47
2023-01-29T12:33:05.934Z,72.19
2023-01-29T12:35:47.678Z,71.42
2023-01-29T12:38:22.373Z,70.76
2023-01-29T12:41:08.017Z,70.17
2023-01-29T12:44:43.544Z,69.54
2023-01-29T12:47:47.180Z,70.35
2023-01-29T12:50:26.422Z,70.09
2023-01-29T12:53:00.828Z,68.79
2023-01-29T12:55:45.370Z,69.08
2023-01-29T12:58:35.601Z,69.91
2023-01-29T13:01:17.836Z,69.40
2023-01-29T13:04:01.473Z,69.70
2023-01-29T13:06:44.524Z,68.96
2023-01-29T13:09:24.816Z,70.47
2023-01-29T13:12:07.852Z,69.99
2023-01-29T13:15:04.149Z,68.95
2023-01-29T13:17:42.359Z,68.93
2023-01-29T13:20:24.635Z,70.15
2023-01-29T13:22:56.654Z,69.95
2023-01-29T13:25:23.802Z,68.38
2023-01-29T13:27:51.629Z,68.90
2023-01-29T13:30:34.307Z,68.38
2023-01-29T13:33:11.394Z,68.18
2023-01-29T13:35:43.510Z,68.42
2023-01-29T13:38:28.693Z,67.63
2023-01-29T13:41:04.860Z,67.10
2023-01-29T13:43:41.827Z,66.38
2023-01-29T13:46:21.454Z,66.34
2023-01-29T13:48:51.788Z,66.38
2023-01-29T13:51:23.046Z,65.53
2023-01-29T13:53:57.342Z,65.95
2023-01-29T13:56:33.287Z,66.47
2023-01-29T13:59:05.373Z,66.07
2023-01-29T14:01:47.588Z,66.33
2023-01-29T14:04:31.335Z,66.92
2023-01-29T14:07:06.605Z,66.15
2023-01-29T14:09:36.923Z,65.93
2023-01-29T14:12:24.519Z,65.83
2023-01-29T14:14:57.251Z,66.27
2023-01-29T14:17:26.738Z,65.72
2023-01-29T14:20:20.383Z,65.41
2023-01-29T14:22:59.727Z,65.45
2023-01-29T14:25:34.130Z,64.90
2023-01-29T14:28:03.866Z,64.68
2023-01-29T14:30:34.825Z,64.44
2023-01-29T14:33:03.291Z,63.74
2023-01-29T14:35:34.204Z,64.26
2023-01-29T14:38:05.937Z,64.60
2023-01-29T14:40:37.062Z,64.10
2023-01-29T14:43:19.915Z,64.36
2023-01-29T14:45:49.478Z,63.12
2023-01-29T14:48:37.251Z,63.12
2023-01-29T14:51:14.911Z,63.25
2023-01-29T14:54:16.716Z,62.50
2023-01-29T14:57:02.446Z,62.29
2023-01-29T14:59:37.475Z,62.74
2023-01-29T15:02:19.032Z,62.84
2023-01-29T15:04:55.412Z,62.40
2023-01-29T15:07:34.922Z,62.78
2023-01-29T15:10:35.851Z,62.85
2023-01-29T15:13:16.051Z,62.53
2023-01-29T15:16:15.109Z,63.00
2023-01-29T15:18:44.077Z,63.68
2023-01-29T15:21:19.081Z,63.60
2023-01-29T15:23:50.395Z,64.05
2023-01-29T15:26:27.247Z,64.27
2023-01-29T15:29:04.954Z,64.31
2023-01-29T15:31:32.608Z,64.94
2023-01-29T15:34:06.601Z,65.24
2023-01-29T15:36:34.125Z,66.14
2023-01-29T15:39:13.397Z,66.72
2023-01-29T15:41:40.541Z,66.26
2023-01-29T15:44:19.015Z,67.12
2023-01-29T15:46:53.160Z,66.21
2023-01-29T15:49:32.016Z,66.43
2023-01-29T15:52:05.858Z,67.38
2023-01-29T15:54:35.110Z,66.96
2023-01-29T15:57:03.836Z,68.02
2023-01-29T15:59:44.804Z,68.05
2023-01-29T16:02:40.074Z,66.97
2023-01-29T16:05:16.164Z,67.97
2023-01-29T16:07:45.581Z,67.66
2023-01-29T16:10:23.026Z,67.36
2023-01-29T16:12:51.734Z,67.54
2023-01-29T16:15:30.582Z,68.15
2023-01-29T16:18:00.116Z,67.84
2023-01-29T16:20:45.367Z,68.29
2023-01-29T16:23:24.840Z,67.39
2023-01-29T16:25:52.111Z,67.75
2023-01-29T16:28:20.065Z,68.08
2023-01-29T16:30:47.472Z,67.92
2023-01-29T16:33:17.279Z,68.15
2023-01-29T16:35:51.947Z,68.46
2023-01-29T16:38:32.574Z,68.62
2023-01-29T16:41:31.034Z,68.94
2023-01-29T16:44:04.592Z,68.33
2023-01-29T16:46:46.592Z,69.55
2023-01-29T16:49:28.549Z,69.29
2023-01-29T16:51:58.491Z,69.69
2023-01-29T16:54:27.577Z,69.93
2023-01-29T16:57:02.081Z,69.58
2023-01-29T16:59:38.553Z,68.84
2023-01-29T17:02:33.391Z,69.75
2023-01-29T17:05:06.981Z,70.22
2023-01-29T17:07:37.339Z,69.29
2023-01-29T17:10:07.284Z,69.56
2023-01-29T17:12:35.121Z,69.95
2023-01-29T17:15:33.008Z,69.54
2023-01-29T17:18:00.588Z,70.38
2023-01-29T17:20:27.975Z,69.76
2023-01-29T17:22:55.142Z,70.42
2023-01-29T17:25:22.241Z,69.32
2023-01-29T17:27:52.210Z,69.67
2023-01-29T17:30:22.707Z,70.46
2023-01-29T17:32:49.806Z,69.79
2023-01-29T17:35:18.157Z,69.47
2023-01-29T17:37:45.525Z,70.67
2023-01-29T17:40:34.527Z,69.54
2023-01-29T17:43:01.501Z,70.33
2023-01-29T17:45:28.993Z,70.92
2023-01-29T17:47:56.160Z,70.67
2023-01-29T17:50:28.070Z,70.37
2023-01-29T17:52:55.123Z,71.09
2023-01-29T17:55:22.110Z,70.40
2023-01-29T17:57:49.288Z,70.80
2023-01-29T18:00:21.327Z,71.21
2023-01-29T18:02:49.049Z,71.11
2023-01-29T18:05:18.054Z,71.50
2023-01-29T18:07:47.267Z,71.19
2023-01-29T18:10:19.992Z,71.65
2023-01-29T18:12:47.457Z,71.83
2023-01-29T18:15:14.923Z,71.86
2023-01-29T18:17:42.658Z,72.13
2023-01-29T18:20:28.320Z,71.09
2023-01-29T18:22:55.326Z,71.87
2023-01-29T18:25:24.168Z,71.67
2023-01-29T18:27:51.866Z,72.36
2023-01-29T18:30:18.806Z,71.81
2023-01-29T18:32:47.486Z,71.53
2023-01-29T18:35:15.161Z,71.75
2023-01-29T18:37:42.362Z,71.49
2023-01-29T18:40:17.260Z,71.73
2023-01-29T18:42:46.215Z,71.67
2023-01-29T18:45:15.543Z,72.15
2023-01-29T18:47:42.775Z,71.96
2023-01-29T18:50:11.243Z,72.83
2023-01-29T18:52:38.231Z,71.96
2023-01-29T18:55:05.767Z,72.49
2023-01-29T18:58:27.974Z,71.70
2023-01-29T19:00:21.910Z,72.22
2023-01-29T19:02:49.271Z,72.43
2023-01-29T19:05:19.361Z,72.91
2023-01-29T19:07:46.750Z,72.64
2023-01-29T19:10:16.859Z,72.56
2023-01-29T19:12:44.362Z,72.82
2023-01-29T19:15:12.094Z,72.48
2023-01-29T19:17:39.327Z,72.70
2023-01-29T19:20:07.644Z,73.06
2023-01-29T19:22:34.648Z,73.31
2023-01-29T19:25:01.647Z,73.22
2023-01-29T19:27:30.687Z,72.83
2023-01-29T19:29:59.504Z,73.39
2023-01-29T19:32:28.110Z,73.63
2023-01-29T19:34:55.321Z,73.19
2023-01-29T19:37:22.613Z,73.32
2023-01-29T19:39:49.934Z,73.52
2023-01-29T19:42:17.537Z,72.63
2023-01-29T19:44:45.453Z,73.03
2023-01-29T19:47:12.656Z,73.23
2023-01-29T19:49:40.561Z,72.93
2023-01-29T19:52:15.116Z,73.75
2023-01-29T19:54:46.670Z,73.97
2023-01-29T19:57:13.690Z,73.46
2023-01-29T19:59:40.790Z,74.15
2023-01-29T20:02:09.631Z,73.97
2023-01-29T20:04:36.687Z,73.59
2023-01-29T20:07:03.858Z,73.25
2023-01-29T20:09:30.902Z,73.26
2023-01-29T20:11:58.047Z,73.46
2023-01-29T20:14:25.124Z,74.21
2023-01-29T20:16:52.222Z,73.77
2023-01-29T20:19:20.575Z,74.30
2023-01-29T20:21:48.947Z,74.27
2023-01-29T20:24:16.102Z,73.53
2023-01-29T20:26:43.232Z,74.39
2023-01-29T20:29:10.265Z,74.11
2023-01-29T20:31:37.389Z,74.50
2023-01-29T20:34:04.333Z,73.71
2023-01-29T20:36:31.374Z,74.59
2023-01-29T20:38:58.478Z,74.53
2023-01-29T20:41:25.983Z,74.23
2023-01-29T20:43:53.122Z,74.09
2023-01-29T20:46:20.762Z,74.09
2023-01-29T20:48:49.130Z,74.25
2023-01-29T20:51:17.704Z,74.89
2023-01-29T20:53:47.347Z,74.49
2023-01-29T20:56:17.177Z,74.15
2023-01-29T20:58:46.676Z,74.90
2023-01-29T21:01:17.495Z,75.30
2023-01-29T21:03:46.441Z,74.86
2023-01-29T21:06:14.798Z,74.65
2023-01-29T21:08:42.298Z,74.56
2023-01-29T21:11:10.723Z,74.87
2023-01-29T21:13:38.295Z,75.00
2023-01-29T21:16:06.277Z,75.57
2023-01-29T21:18:33.232Z,74.75
2023-01-29T21:21:00.188Z,74.47
2023-01-29T21:23:27.156Z,75.39
2023-01-29T21:25:54.159Z,75.76
2023-01-29T21:28:21.140Z,75.25
2023-01-29T21:30:48.932Z,75.57
2023-01-29T21:33:16.374Z,75.03
2023-01-29T21:35:43.304Z,75.77
2023-01-29T21:38:10.290Z,75.03
2023-01-29T21:40:37.170Z,75.55
2023-01-29T21:43:13.261Z,74.99
2023-01-29T21:45:41.199Z,75.04
2023-01-29T21:48:10.515Z,74.86
2023-01-29T21:50:38.341Z,74.68
2023-01-29T21:53:05.235Z,75.36
2023-01-29T21:55:32.832Z,75.48
2023-01-29T21:58:00.467Z,75.65
2023-01-29T22:00:28.086Z,75.57
2023-01-29T22:02:55.101Z,75.75
2023-01-29T22:05:22.161Z,75.50
2023-01-29T22:07:49.724Z,75.15
2023-01-29T22:10:18.727Z,75.85
2023-01-29T22:12:46.170Z,75.47
2023-01-29T22:15:13.752Z,75.80
2023-01-29T22:17:42.795Z,75.85
2023-01-29T22:20:14.728Z,75.70
2023-01-29T22:22:42.180Z,76.31
2023-01-29T22:25:09.669Z,76.26
2023-01-29T22:27:36.719Z,76.14
2023-01-29T22:30:05.565Z,76.36
2023-01-29T22:32:32.835Z,76.39
2023-01-29T22:34:59.913Z,75.99
2023-01-29T22:37:26.877Z,76.28
2023-01-29T22:39:53.829Z,76.51
2023-01-29T22:42:21.090Z,76.17
2023-01-29T22:44:48.648Z,76.53
2023-01-29T22:47:16.101Z,76.24
2023-01-29T22:49:45.456Z,75.81
2023-01-29T22:52:12.398Z,76.53
2023-01-29T22:54:42.232Z,76.32
2023-01-29T22:57:14.840Z,76.20
2023-01-29T22:59:41.894Z,75.72
2023-01-29T23:02:09.660Z,76.23
2023-01-29T23:04:37.345Z,76.29
2023-01-29T23:07:04.620Z,76.33
2023-01-29T23:09:31.591Z,76.22
2023-01-29T23:11:58.494Z,76.21
2023-01-29T23:14:25.438Z,75.83
2023-01-29T23:16:52.315Z,75.70
2023-01-29T23:19:19.811Z,75.59
2023-01-29T23:21:46.698Z,75.40
2023-01-29T23:24:13.816Z,75.76
2023-01-29T23:26:59.229Z,76.18
2023-01-29T23:29:26.082Z,76.38
2023-01-29T23:31:53.176Z,75.50
2023-01-29T23:34:20.540Z,76.17
2023-01-29T23:36:47.719Z,76.38
2023-01-29T23:39:15.312Z,76.39
2023-01-29T23:41:42.557Z,75.68
2023-01-29T23:44:09.563Z,76.05
2023-01-29T23:46:36.664Z,76.18
2023-01-29T23:49:03.726Z,75.88
2023-01-29T23:51:30.635Z,75.99
2023-01-29T23:53:57.733Z,76.20
2023-01-29T23:56:25.255Z,75.77
2023-01-29T23:58:56.872Z,75.89
